Time;durP1;ratioP1;P1;durP2;ratioP2;P2;SDS_P1;SDS_P2;PMS_P1;PMS_P2;Temp;Humidity;BMP_temperature;BMP_pressure;BME280_temperature;BME280_humidity;BME280_pressure;Samples;Min_cycle;Max_cycle;Signal;HPM_P1;HPM_P2
2023/07/21 00:02:16;;;;;;;930.37;856.03;;;13.90;99.90;;;;;;5013830;28;20465;-68
2023/07/21 00:04:42;;;;;;;902.97;828.43;;;13.80;99.90;;;;;;5013904;28;20454;-69
2023/07/21 00:07:09;;;;;;;906.30;829.00;;;13.80;99.90;;;;;;5013677;28;20460;-68
2023/07/21 00:09:36;;;;;;;896.37;817.63;;;13.80;99.90;;;;;;5013407;28;20461;-68
2023/07/21 00:12:03;;;;;;;897.73;819.23;;;13.90;99.90;;;;;;5013901;28;20453;-68
2023/07/21 00:14:30;;;;;;;900.43;821.33;;;13.90;99.90;;;;;;5013816;28;20449;-69
2023/07/21 00:16:57;;;;;;;892.20;813.30;;;13.90;99.90;;;;;;5013540;28;20465;-68
2023/07/21 00:19:25;;;;;;;899.63;820.43;;;14.00;99.90;;;;;;5013291;28;20504;-68
2023/07/21 00:21:52;;;;;;;897.47;816.93;;;14.00;99.90;;;;;;5013295;28;20458;-69
2023/07/21 00:24:20;;;;;;;892.43;814.03;;;14.00;99.90;;;;;;5013696;28;20956;-69
2023/07/21 00:26:47;;;;;;;902.20;824.10;;;14.00;99.90;;;;;;5013486;28;20461;-69
2023/07/21 00:29:14;;;;;;;906.60;829.70;;;14.00;99.90;;;;;;5013522;28;20456;-68
2023/07/21 00:31:46;;;;;;;898.37;820.70;;;13.90;99.90;;;;;;5013745;28;20937;-69
2023/07/21 00:34:13;;;;;;;900.47;822.00;;;13.80;99.90;;;;;;5013102;28;20995;-69
2023/07/21 00:36:41;;;;;;;914.20;836.90;;;13.80;99.90;;;;;;5012900;28;20460;-68
2023/07/21 00:39:09;;;;;;;904.60;824.77;;;13.70;99.90;;;;;;5012799;28;20484;-68
2023/07/21 00:41:36;;;;;;;909.77;828.40;;;13.60;99.90;;;;;;5013183;28;20457;-69
2023/07/21 00:44:06;;;;;;;901.27;818.60;;;13.60;99.90;;;;;;5013089;28;20937;-69
2023/07/21 00:46:33;;;;;;;908.27;824.40;;;13.60;99.90;;;;;;5013201;28;20859;-69
2023/07/21 00:49:00;;;;;;;907.50;825.30;;;13.60;99.90;;;;;;5012654;28;20453;-68
2023/07/21 00:51:27;;;;;;;909.93;826.43;;;13.50;99.90;;;;;;5013197;28;20556;-68
2023/07/21 00:53:56;;;;;;;911.43;826.60;;;13.50;99.90;;;;;;5013121;28;20463;-69
2023/07/21 00:56:23;;;;;;;903.17;818.30;;;13.50;99.90;;;;;;5013150;28;20464;-69
2023/07/21 00:58:50;;;;;;;896.53;811.93;;;13.50;99.90;;;;;;5012631;28;20528;-68
2023/07/21 01:01:17;;;;;;;905.50;820.60;;;13.50;99.90;;;;;;5012864;28;20980;-68
2023/07/21 01:03:44;;;;;;;899.40;815.27;;;13.50;99.90;;;;;;5012752;28;20489;-68
2023/07/21 01:06:12;;;;;;;900.00;815.20;;;13.50;99.90;;;;;;5012719;28;20536;-68
2023/07/21 01:08:40;;;;;;;904.87;818.57;;;13.40;99.90;;;;;;5012582;28;20449;-68
2023/07/21 01:11:10;;;;;;;897.10;810.07;;;13.40;99.90;;;;;;5012819;28;20450;-68
2023/07/21 01:13:39;;;;;;;907.60;819.90;;;13.40;99.90;;;;;;5012715;28;20515;-68
2023/07/21 01:16:08;;;;;;;907.47;819.47;;;13.40;99.90;;;;;;5012576;28;20464;-68
2023/07/21 01:18:37;;;;;;;910.97;822.37;;;13.40;99.90;;;;;;5012459;28;20563;-68
2023/07/21 01:21:05;;;;;;;902.43;815.30;;;13.40;99.90;;;;;;5012657;28;20467;-68
2023/07/21 01:23:39;;;;;;;904.40;818.00;;;13.40;99.90;;;;;;5012534;28;21047;-68
2023/07/21 01:26:10;;;;;;;903.50;818.30;;;13.30;99.90;;;;;;5012748;28;20462;-68
2023/07/21 01:28:39;;;;;;;902.73;817.63;;;13.30;99.90;;;;;;5012123;28;20454;-68
2023/07/21 01:31:06;;;;;;;905.10;819.17;;;13.30;99.90;;;;;;5012726;28;20458;-68
2023/07/21 01:33:34;;;;;;;901.27;816.27;;;13.40;99.90;;;;;;5011765;28;20465;-68
2023/07/21 01:36:02;;;;;;;901.43;817.23;;;13.40;99.90;;;;;;5012464;28;20454;-68
2023/07/21 01:38:30;;;;;;;910.03;825.53;;;13.40;99.90;;;;;;5012119;28;20480;-68
2023/07/21 01:40:58;;;;;;;913.13;828.10;;;13.40;99.90;;;;;;5012321;28;21016;-68
2023/07/21 01:43:26;;;;;;;925.37;841.57;;;13.40;99.90;;;;;;5012208;28;20465;-68
2023/07/21 01:45:53;;;;;;;931.73;848.30;;;13.40;99.90;;;;;;5012478;28;20453;-68
2023/07/21 01:48:20;;;;;;;914.17;830.83;;;13.30;99.90;;;;;;5013178;28;20453;-68
2023/07/21 01:50:48;;;;;;;913.83;829.83;;;13.30;99.90;;;;;;5016350;28;20627;-68
2023/07/21 01:53:20;;;;;;;916.30;833.37;;;13.40;99.90;;;;;;5016340;28;20457;-68
2023/07/21 01:55:53;;;;;;;906.10;823.60;;;13.40;99.90;;;;;;5016374;28;20829;-68
2023/07/21 01:58:21;;;;;;;909.87;826.73;;;13.40;99.90;;;;;;5016285;28;20453;-68
2023/07/21 02:00:49;;;;;;;904.37;822.07;;;13.50;99.90;;;;;;5016058;28;20477;-68
2023/07/21 02:03:18;;;;;;;904.40;821.87;;;13.50;99.90;;;;;;5016056;28;20457;-68
2023/07/21 02:05:45;;;;;;;890.73;809.60;;;13.50;99.90;;;;;;5016108;28;20496;-68
2023/07/21 02:08:12;;;;;;;891.67;811.37;;;13.60;99.90;;;;;;5015979;28;20481;-68
2023/07/21 02:10:39;;;;;;;895.90;814.87;;;13.60;99.90;;;;;;5015831;28;20496;-68
2023/07/21 02:13:06;;;;;;;903.83;821.37;;;13.60;99.90;;;;;;5015915;28;20933;-68
2023/07/21 02:15:33;;;;;;;909.23;827.00;;;13.60;99.90;;;;;;5016085;28;20461;-68
2023/07/21 02:18:01;;;;;;;904.70;822.43;;;13.60;99.90;;;;;;5015949;28;20453;-68
2023/07/21 02:20:28;;;;;;;906.33;821.03;;;13.70;99.90;;;;;;5015541;28;20481;-68
2023/07/21 02:22:55;;;;;;;913.90;827.93;;;13.70;99.90;;;;;;5015741;28;20453;-68
2023/07/21 02:25:22;;;;;;;906.13;821.30;;;13.90;99.90;;;;;;5015959;28;20800;-68
2023/07/21 02:27:49;;;;;;;904.93;820.37;;;13.80;99.90;;;;;;5015611;28;20688;-68
2023/07/21 02:30:16;;;;;;;911.37;826.17;;;13.90;99.90;;;;;;5015486;28;20445;-68
2023/07/21 02:32:43;;;;;;;910.07;825.47;;;13.90;99.90;;;;;;5015704;28;20454;-68
2023/07/21 02:35:12;;;;;;;921.97;835.87;;;13.90;99.90;;;;;;5015544;28;20888;-68
2023/07/21 02:37:38;;;;;;;909.57;823.70;;;13.90;99.90;;;;;;5015363;28;20544;-68
2023/07/21 02:40:08;;;;;;;903.87;818.80;;;13.90;99.90;;;;;;5014801;28;20485;-68
2023/07/21 02:42:35;;;;;;;925.50;841.13;;;13.90;99.90;;;;;;5015602;28;20870;-68
2023/07/21 02:45:02;;;;;;;913.77;829.83;;;13.90;99.90;;;;;;5015469;28;20453;-68
2023/07/21 02:47:29;;;;;;;904.40;819.63;;;13.80;99.90;;;;;;5015495;28;20500;-68
2023/07/21 02:49:56;;;;;;;916.90;831.67;;;13.90;99.90;;;;;;5014906;28;20456;-68
2023/07/21 02:52:24;;;;;;;904.80;821.90;;;13.80;99.90;;;;;;5015157;28;20457;-68
2023/07/21 02:54:51;;;;;;;902.20;819.00;;;13.80;99.90;;;;;;5015174;28;20496;-68
2023/07/21 02:57:17;;;;;;;901.77;822.00;;;13.80;99.90;;;;;;5015284;28;20828;-68
2023/07/21 02:59:45;;;;;;;907.50;826.70;;;13.70;99.90;;;;;;5014272;28;20482;-68
2023/07/21 03:02:12;;;;;;;915.57;833.50;;;13.70;99.90;;;;;;5015423;28;20461;-68
2023/07/21 03:04:42;;;;;;;906.97;824.57;;;13.80;99.90;;;;;;5014864;28;20830;-68
2023/07/21 03:07:11;;;;;;;914.33;833.33;;;13.80;99.90;;;;;;5015416;28;20872;-68
2023/07/21 03:09:39;;;;;;;910.73;828.23;;;13.70;99.90;;;;;;5015063;28;20813;-69
2023/07/21 03:12:07;;;;;;;899.47;818.23;;;13.70;99.90;;;;;;5014964;28;20485;-68
2023/07/21 03:14:34;;;;;;;903.03;822.00;;;13.70;99.90;;;;;;5014921;28;20460;-68
2023/07/21 03:17:00;;;;;;;905.77;824.17;;;13.70;99.90;;;;;;5015249;28;20453;-68
2023/07/21 03:19:30;;;;;;;908.07;827.60;;;13.70;99.90;;;;;;5014491;28;20481;-68
2023/07/21 03:21:57;;;;;;;913.33;833.23;;;13.80;99.90;;;;;;5014826;28;20459;-68
2023/07/21 03:24:24;;;;;;;893.07;814.50;;;13.80;99.90;;;;;;5014725;28;20464;-68
2023/07/21 03:26:52;;;;;;;886.80;808.73;;;13.90;99.90;;;;;;5014722;28;20457;-68
2023/07/21 03:29:22;;;;;;;920.53;841.00;;;13.90;99.90;;;;;;5014939;28;20450;-68
2023/07/21 03:31:48;;;;;;;905.17;825.10;;;13.80;99.90;;;;;;5014301;28;20456;-68
2023/07/21 03:34:15;;;;;;;910.87;830.10;;;13.80;99.90;;;;;;5014597;28;20508;-68
2023/07/21 03:36:42;;;;;;;900.00;819.93;;;13.80;99.90;;;;;;5014655;28;20454;-68
2023/07/21 03:39:09;;;;;;;902.93;822.07;;;13.80;99.90;;;;;;5014215;28;20453;-68
2023/07/21 03:41:36;;;;;;;913.30;831.70;;;13.80;99.90;;;;;;5014149;28;20472;-68
2023/07/21 03:44:04;;;;;;;910.83;829.97;;;13.70;99.90;;;;;;5014188;28;20454;-68
2023/07/21 03:46:31;;;;;;;906.57;826.60;;;13.70;99.90;;;;;;5014408;28;20450;-68
2023/07/21 03:48:58;;;;;;;906.63;826.20;;;13.60;99.90;;;;;;5014076;28;20464;-68
2023/07/21 03:51:26;;;;;;;916.60;835.70;;;13.50;99.90;;;;;;5014237;28;20453;-68
2023/07/21 03:53:53;;;;;;;931.63;851.20;;;13.60;99.90;;;;;;5014036;28;20457;-68
2023/07/21 03:56:21;;;;;;;906.57;826.07;;;13.50;99.90;;;;;;5014072;28;20453;-68
2023/07/21 03:58:48;;;;;;;914.73;833.80;;;13.50;99.90;;;;;;5013756;28;20454;-68
2023/07/21 04:01:16;;;;;;;916.27;836.43;;;13.50;99.90;;;;;;5014204;28;20477;-69
2023/07/21 04:03:43;;;;;;;912.50;831.90;;;13.50;99.90;;;;;;5014186;28;20476;-68
2023/07/21 04:06:10;;;;;;;911.73;829.47;;;13.50;99.90;;;;;;5014159;28;20453;-68
2023/07/21 04:08:37;;;;;;;908.80;826.80;;;13.50;99.90;;;;;;5013546;28;20466;-68
2023/07/21 04:11:04;;;;;;;916.07;833.77;;;13.50;99.90;;;;;;5013036;28;20553;-68
2023/07/21 04:13:32;;;;;;;912.67;831.60;;;13.50;99.90;;;;;;5013605;28;20461;-68
2023/07/21 04:16:00;;;;;;;915.77;836.20;;;13.50;99.90;;;;;;5014046;28;20461;-68
2023/07/21 04:18:28;;;;;;;923.03;842.87;;;13.50;99.90;;;;;;5013510;28;20488;-68
2023/07/21 04:20:55;;;;;;;907.20;827.20;;;13.50;99.90;;;;;;5014022;28;20538;-68
2023/07/21 04:23:22;;;;;;;922.80;841.87;;;13.50;99.90;;;;;;5013616;28;20453;-68
2023/07/21 04:25:49;;;;;;;915.57;834.57;;;13.50;99.90;;;;;;5013613;28;20472;-68
2023/07/21 04:28:15;;;;;;;923.80;844.13;;;13.50;99.90;;;;;;5013191;28;20456;-68
2023/07/21 04:30:42;;;;;;;916.67;834.00;;;13.50;99.90;;;;;;4993355;28;20446;-69
2023/07/21 04:33:09;;;;;;;914.77;831.70;;;13.60;99.90;;;;;;4993935;28;20455;-68
2023/07/21 04:35:43;;;;;;;918.20;834.80;;;13.60;99.90;;;;;;4993839;28;20462;-68
2023/07/21 04:38:10;;;;;;;894.23;814.97;;;13.60;99.90;;;;;;4993572;28;20454;-68
2023/07/21 04:40:37;;;;;;;899.13;820.80;;;13.60;99.90;;;;;;4993270;28;20857;-68
2023/07/21 04:43:04;;;;;;;902.13;825.27;;;13.70;99.90;;;;;;4993819;28;20478;-68
2023/07/21 04:45:31;;;;;;;908.70;832.07;;;13.70;99.90;;;;;;4993525;28;20454;-68
2023/07/21 04:47:58;;;;;;;907.40;831.60;;;13.80;99.90;;;;;;4993539;28;20467;-69
2023/07/21 04:50:25;;;;;;;916.03;838.87;;;13.90;99.90;;;;;;4993295;28;20455;-68
2023/07/21 04:52:53;;;;;;;927.77;849.97;;;13.90;99.90;;;;;;4993333;28;20462;-68
2023/07/21 04:55:20;;;;;;;924.07;846.30;;;14.10;99.90;;;;;;4993384;28;20458;-68
2023/07/21 04:57:46;;;;;;;908.53;832.67;;;14.20;99.90;;;;;;4993311;28;20497;-69
2023/07/21 05:00:15;;;;;;;893.17;820.53;;;14.30;99.90;;;;;;4993156;28;20505;-69
2023/07/21 05:02:42;;;;;;;903.07;830.30;;;14.40;99.90;;;;;;4993228;28;20462;-69
2023/07/21 05:05:09;;;;;;;904.40;833.70;;;14.50;99.90;;;;;;4993269;28;20455;-69
2023/07/21 05:07:36;;;;;;;885.37;818.23;;;14.70;99.90;;;;;;4993055;28;20950;-69
2023/07/21 05:10:05;;;;;;;872.33;809.27;;;14.70;99.90;;;;;;4992913;28;20966;-68
2023/07/21 05:12:32;;;;;;;890.77;826.13;;;14.70;99.90;;;;;;4993220;28;20470;-69
2023/07/21 05:14:59;;;;;;;889.90;825.00;;;14.70;99.90;;;;;;4993116;28;20454;-69
2023/07/21 05:17:26;;;;;;;890.70;825.33;;;14.80;99.90;;;;;;4993119;28;20465;-69
2023/07/21 05:19:53;;;;;;;875.03;812.60;;;15.00;99.90;;;;;;4992774;28;21056;-69
2023/07/21 05:22:20;;;;;;;871.67;811.27;;;15.10;99.90;;;;;;4992940;28;20454;-69
2023/07/21 05:24:47;;;;;;;824.40;771.57;;;15.20;99.90;;;;;;4993418;28;20482;-69
2023/07/21 05:27:16;;;;;;;837.27;784.07;;;15.20;99.90;;;;;;5012702;28;20457;-69
2023/07/21 05:29:43;;;;;;;830.30;774.67;;;15.30;99.90;;;;;;5012286;28;20460;-69
2023/07/21 05:32:10;;;;;;;835.07;777.97;;;15.50;99.90;;;;;;5011910;28;20453;-69
2023/07/21 05:34:37;;;;;;;800.70;748.50;;;15.60;99.90;;;;;;5011088;28;20457;-69
2023/07/21 05:37:05;;;;;;;771.73;723.43;;;15.80;99.90;;;;;;5012070;28;20457;-69
2023/07/21 05:39:32;;;;;;;716.73;674.70;;;15.80;99.90;;;;;;5012529;28;20877;-69
2023/07/21 05:41:59;;;;;;;630.17;597.10;;;15.90;99.90;;;;;;5012329;28;20476;-69
2023/07/21 05:44:30;;;;;;;627.97;595.30;;;15.90;99.90;;;;;;5012502;28;20456;-70
2023/07/21 05:46:58;;;;;;;582.53;554.03;;;16.10;99.90;;;;;;5012192;28;20934;-70
2023/07/21 05:49:24;;;;;;;577.30;550.00;;;16.10;99.90;;;;;;5012009;28;20960;-70
2023/07/21 05:51:51;;;;;;;500.13;478.47;;;16.30;99.90;;;;;;5012250;28;21008;-69
2023/07/21 05:54:18;;;;;;;417.73;401.20;;;16.50;99.90;;;;;;5012345;28;20461;-70
2023/07/21 05:56:45;;;;;;;231.70;221.60;;;16.60;99.90;;;;;;5012272;28;20457;-70
2023/07/21 05:59:12;;;;;;;186.13;177.77;;;16.60;99.90;;;;;;5012120;28;20548;-70
2023/07/21 06:01:40;;;;;;;204.23;195.10;;;16.50;99.90;;;;;;5012101;28;20523;-71
2023/07/21 06:04:09;;;;;;;192.17;184.13;;;16.50;99.90;;;;;;5012287;28;20454;-68
2023/07/21 06:06:35;;;;;;;210.70;200.97;;;16.60;99.90;;;;;;5012100;28;20505;-69
2023/07/21 06:09:03;;;;;;;155.40;148.53;;;16.50;99.90;;;;;;5011799;28;20456;-68
2023/07/21 06:11:30;;;;;;;156.50;148.70;;;16.50;99.90;;;;;;5012313;28;20642;-69
2023/07/21 06:13:57;;;;;;;158.43;151.40;;;16.60;99.90;;;;;;5011969;28;20457;-69
2023/07/21 06:16:23;;;;;;;110.57;104.93;;;16.70;99.90;;;;;;5012112;28;20553;-69
2023/07/21 06:18:52;;;;;;;97.47;91.90;;;16.90;99.90;;;;;;5012045;28;20460;-69
2023/07/21 06:21:20;;;;;;;41.60;38.53;;;17.30;99.90;;;;;;5012151;28;20481;-68
2023/07/21 06:23:48;;;;;;;35.37;25.40;;;17.60;99.90;;;;;;5012137;28;20476;-69
2023/07/21 06:26:15;;;;;;;23.00;18.70;;;17.90;99.90;;;;;;5010914;28;20453;-69
2023/07/21 06:28:41;;;;;;;19.97;17.80;;;18.40;99.90;;;;;;4991824;28;20476;-69
2023/07/21 06:31:10;;;;;;;25.40;16.50;;;18.90;99.90;;;;;;4991834;28;20450;-69
2023/07/21 06:33:37;;;;;;;21.20;17.57;;;19.40;99.90;;;;;;4991986;28;20458;-69
2023/07/21 06:36:05;;;;;;;24.57;17.57;;;19.20;94.30;;;;;;4995815;28;20457;-69
2023/07/21 06:38:33;;;;;;;25.87;15.73;;;19.60;94.90;;;;;;4995369;28;20461;-70
2023/07/21 06:41:00;;;;;;;24.30;16.10;;;19.90;95.10;;;;;;4995353;28;20489;-69
2023/07/21 06:43:27;;;;;;;21.50;15.67;;;20.10;95.10;;;;;;4995062;28;20812;-68
2023/07/21 06:45:54;;;;;;;21.67;16.90;;;20.40;92.90;;;;;;4996730;28;20465;-68
2023/07/21 06:48:20;;;;;;;19.70;16.83;;;20.60;91.90;;;;;;4995264;28;20481;-68
2023/07/21 06:50:48;;;;;;;21.80;16.70;;;20.70;92.00;;;;;;4995118;28;20454;-68
2023/07/21 06:53:17;;;;;;;21.30;16.30;;;20.60;86.60;;;;;;4995691;28;20458;-69
2023/07/21 06:55:45;;;;;;;18.37;16.27;;;20.70;86.70;;;;;;4995368;28;20450;-69
2023/07/21 06:58:12;;;;;;;18.53;15.77;;;20.80;86.80;;;;;;4994972;28;20465;-68
2023/07/21 07:00:38;;;;;;;26.67;15.33;;;21.00;84.70;;;;;;4995038;28;20528;-68
2023/07/21 07:03:05;;;;;;;22.83;16.50;;;21.10;79.20;;;;;;4995614;28;20462;-69
2023/07/21 07:05:32;;;;;;;24.30;16.97;;;21.50;79.50;;;;;;4995090;28;20454;-69
2023/07/21 07:07:59;;;;;;;23.03;15.53;;;21.80;79.80;;;;;;4995045;28;20457;-68
2023/07/21 07:10:27;;;;;;;21.23;16.17;;;22.10;80.10;;;;;;4994589;28;20823;-69
2023/07/21 07:12:54;;;;;;;19.87;15.00;;;22.30;72.20;;;;;;4995076;28;20465;-69
2023/07/21 07:15:20;;;;;;;18.23;14.63;;;22.10;65.30;;;;;;4994995;28;20465;-69
2023/07/21 07:17:47;;;;;;;17.70;14.20;;;22.00;66.40;;;;;;4994904;28;20832;-67
2023/07/21 07:20:14;;;;;;;16.97;12.63;;;21.80;63.50;;;;;;4994571;28;20454;-66
2023/07/21 07:22:43;;;;;;;14.57;11.87;;;21.70;63.40;;;;;;4994670;28;20465;-67
2023/07/21 07:25:10;;;;;;;17.00;13.90;;;21.80;63.50;;;;;;4994893;28;20505;-67
2023/07/21 07:27:38;;;;;;;15.37;13.37;;;21.40;63.90;;;;;;4994528;28;20986;-67
2023/07/21 07:30:06;;;;;;;20.33;14.27;;;21.10;59.70;;;;;;4994699;28;20461;-67
2023/07/21 07:32:33;;;;;;;23.00;14.47;;;21.20;62.90;;;;;;4994704;28;20698;-67
2023/07/21 07:35:00;;;;;;;16.90;14.50;;;21.70;63.40;;;;;;4994564;28;20537;-67
2023/07/21 07:37:28;;;;;;;18.93;12.70;;;22.30;55.40;;;;;;4994577;28;20455;-67
2023/07/21 07:39:55;;;;;;;19.17;13.90;;;22.80;55.80;;;;;;4994413;28;20816;-67
2023/07/21 07:42:23;;;;;;;15.37;12.47;;;22.70;50.70;;;;;;4994356;28;20482;-67
2023/07/21 07:44:55;;;;;;;16.70;12.43;;;22.70;49.30;;;;;;4996771;28;20565;-67
2023/07/21 07:47:22;;;;;;;20.27;12.97;;;22.70;46.90;;;;;;5013998;28;20493;-67
2023/07/21 07:49:49;;;;;;;17.87;13.20;;;22.50;46.70;;;;;;5013959;28;20807;-67
2023/07/21 07:52:16;;;;;;;16.40;12.17;;;22.80;47.00;;;;;;5014058;28;20621;-67
2023/07/21 07:54:43;;;;;;;18.70;13.37;;;22.70;46.90;;;;;;5003465;28;20464;-67
2023/07/21 07:57:10;;;;;;;16.73;13.10;;;22.60;46.80;;;;;;4994064;28;20469;-67
2023/07/21 07:59:37;;;;;;;13.60;11.10;;;22.50;46.70;;;;;;4994611;28;20458;-68
2023/07/21 08:02:06;;;;;;;14.90;13.20;;;22.60;37.80;;;;;;4993415;28;20460;-68
2023/07/21 08:04:33;;;;;;;13.40;10.87;;;22.30;37.40;;;;;;4994195;28;20204;-68
2023/07/21 08:07:00;;;;;;;13.10;11.23;;;22.40;43.20;;;;;;4994539;28;20562;-67
2023/07/21 08:09:27;;;;;;;13.93;11.70;;;23.00;38.10;;;;;;4994156;28;20455;-68
2023/07/21 08:11:53;;;;;;;14.40;11.23;;;23.60;38.70;;;;;;4994145;28;20461;-68
2023/07/21 08:14:20;;;;;;;15.37;11.80;;;22.90;38.00;;;;;;4994252;28;20492;-68
2023/07/21 08:16:47;;;;;;;14.33;12.27;;;22.40;37.50;;;;;;4994213;28;20457;-67
2023/07/21 08:19:15;;;;;;;16.30;10.70;;;22.60;37.80;;;;;;4993621;28;20458;-68
2023/07/21 08:21:42;;;;;;;15.60;11.87;;;23.20;39.10;;;;;;4994171;28;20959;-68
2023/07/21 08:24:08;;;;;;;13.67;10.10;;;23.10;38.10;;;;;;4994161;28;20458;-67
2023/07/21 08:26:35;;;;;;;19.07;10.37;;;22.90;32.50;;;;;;4994036;28;20454;-68
2023/07/21 08:29:04;;;;;;;15.93;11.27;;;22.50;37.60;;;;;;4993651;28;20454;-68
2023/07/21 08:31:30;;;;;;;18.73;10.90;;;22.70;36.10;;;;;;4993838;28;20858;-67
2023/07/21 08:33:57;;;;;;;14.20;11.10;;;23.10;38.20;;;;;;4993717;28;20462;-68
2023/07/21 08:36:25;;;;;;;14.97;10.67;;;22.90;34.80;;;;;;4993980;28;20460;-68
2023/07/21 08:38:52;;;;;;;14.60;10.70;;;22.60;37.60;;;;;;4993649;28;20458;-68
2023/07/21 08:41:20;;;;;;;14.27;11.30;;;22.80;37.90;;;;;;4993456;28;20483;-68
2023/07/21 08:43:49;;;;;;;15.80;11.37;;;22.60;37.60;;;;;;4993714;28;20465;-68
2023/07/21 08:46:18;;;;;;;12.90;8.87;;;22.80;35.70;;;;;;4993494;28;20455;-68
2023/07/21 08:48:48;;;;;;;17.50;10.27;;;22.50;28.80;;;;;;4993412;28;20432;-68
2023/07/21 08:51:15;;;;;;;12.77;10.33;;;22.40;37.50;;;;;;4993745;28;20540;-68
2023/07/21 08:53:44;;;;;;;16.97;10.67;;;22.30;37.40;;;;;;4993508;28;20449;-68
2023/07/21 08:56:11;;;;;;;12.30;8.80;;;22.70;37.80;;;;;;4993409;28;20454;-68
2023/07/21 08:58:38;;;;;;;18.47;9.97;;;23.00;29.30;;;;;;4992882;28;20455;-68
2023/07/21 09:01:07;;;;;;;14.40;9.07;;;23.70;30.40;;;;;;4993195;28;20486;-68
2023/07/21 09:03:33;;;;;;;11.67;7.60;;;24.00;27.10;;;;;;4993516;28;20461;-67
2023/07/21 09:06:01;;;;;;;12.27;9.13;;;24.10;22.70;;;;;;4993358;28;20823;-68
2023/07/21 09:08:29;;;;;;;15.00;9.73;;;23.60;22.30;;;;;;4992891;28;20454;-68
2023/07/21 09:11:01;;;;;;;14.97;10.50;;;24.20;24.10;;;;;;4993386;28;20454;-68
2023/07/21 09:13:29;;;;;;;19.20;9.60;;;23.80;22.40;;;;;;4993037;28;20458;-68
2023/07/21 09:15:58;;;;;;;13.33;9.30;;;23.90;25.40;;;;;;4993276;28;20462;-68
2023/07/21 09:18:26;;;;;;;12.27;9.50;;;24.00;22.60;;;;;;4993087;28;20866;-68
2023/07/21 09:20:53;;;;;;;17.10;9.00;;;23.40;22.20;;;;;;4993080;28;20829;-68
2023/07/21 09:23:21;;;;;;;11.43;8.97;;;23.70;22.40;;;;;;4993097;28;20512;-68
2023/07/21 09:25:53;;;;;;;11.00;8.90;;;24.10;22.70;;;;;;4993051;28;20455;-68
2023/07/21 09:28:21;;;;;;;12.73;7.67;;;24.00;22.60;;;;;;4993194;28;20517;-69
2023/07/21 09:30:53;;;;;;;8.40;5.97;;;24.40;22.80;;;;;;4993164;28;20450;-68
2023/07/21 09:33:24;;;;;;;16.30;6.67;;;24.80;17.90;;;;;;4993002;28;20942;-69
2023/07/21 09:36:03;;;;;;;14.97;8.50;;;24.80;15.60;;;;;;4993098;28;20481;-68
2023/07/21 09:38:30;;;;;;;13.00;7.20;;;24.20;15.30;;;;;;4992397;28;20455;-68
2023/07/21 09:41:01;;;;;;;11.80;6.50;;;24.70;15.60;;;;;;4992613;28;20997;-68
2023/07/21 09:43:30;;;;;;;11.80;7.10;;;24.70;15.60;;;;;;4993014;28;20454;-68
2023/07/21 09:45:59;;;;;;;9.07;5.90;;;25.30;15.90;;;;;;4993113;28;20557;-68
2023/07/21 09:48:27;;;;;;;10.20;6.90;;;25.70;10.40;;;;;;4992742;28;20454;-68
2023/07/21 09:50:57;;;;;;;10.03;5.60;;;26.10;8.70;;;;;;4992663;28;20450;-68
2023/07/21 09:53:29;;;;;;;8.60;6.30;;;26.50;8.90;;;;;;4992706;28;20457;-68
2023/07/21 09:55:57;;;;;;;9.20;6.67;;;26.70;1.20;;;;;;4993047;28;20459;-68
2023/07/21 09:58:27;;;;;;;13.13;7.83;;;26.40;3.60;;;;;;4992448;28;20955;-68
2023/07/21 10:01:00;;;;;;;10.93;7.67;;;26.00;4.80;;;;;;4993355;28;20454;-68
2023/07/21 10:03:27;;;;;;;9.90;7.10;;;25.20;1.00;;;;;;4992518;28;20536;-68
2023/07/21 10:05:54;;;;;;;14.63;9.20;;;25.20;8.10;;;;;;4992805;28;20459;-67
2023/07/21 10:08:22;;;;;;;12.40;6.90;;;25.50;8.40;;;;;;4992742;28;20939;-67
2023/07/21 10:10:49;;;;;;;9.50;6.60;;;26.10;6.80;;;;;;4996290;28;20482;-67
2023/07/21 10:13:16;;;;;;;12.60;6.50;;;26.10;4.80;;;;;;4996617;28;20461;-67
2023/07/21 10:15:47;;;;;;;9.80;5.63;;;26.30;1.00;;;;;;4996447;28;20461;-67
2023/07/21 10:18:18;;;;;;;9.47;5.30;;;26.80;1.00;;;;;;4996282;28;20458;-68
2023/07/21 10:20:49;;;;;;;7.40;4.97;;;26.90;1.00;;;;;;4996447;28;20821;-68
2023/07/21 10:23:17;;;;;;;9.17;5.77;;;26.80;1.00;;;;;;4996289;28;20505;-68
2023/07/21 10:25:56;;;;;;;9.97;5.47;;;26.60;1.00;;;;;;4996151;28;20493;-68
2023/07/21 10:28:24;;;;;;;7.67;3.90;;;26.90;1.30;;;;;;4995840;28;20465;-68
2023/07/21 10:30:52;;;;;;;7.53;4.83;;;26.90;1.20;;;;;;4996245;28;20533;-68
2023/07/21 10:33:29;;;;;;;7.00;4.33;;;26.60;1.00;;;;;;4996247;28;20508;-68
2023/07/21 10:36:14;;;;;;;7.00;3.77;;;25.80;1.00;;;;;;4996111;28;20450;-68
2023/07/21 10:38:41;;;;;;;7.70;4.60;;;25.70;1.00;;;;;;4995577;28;20454;-67
2023/07/21 10:41:08;;;;;;;9.67;5.20;;;25.50;1.00;;;;;;4995810;28;20470;-67
2023/07/21 10:43:35;;;;;;;7.53;4.20;;;25.50;1.00;;;;;;4995988;28;20488;-68
2023/07/21 10:46:06;;;;;;;7.87;4.63;;;25.80;1.00;;;;;;4996054;28;20463;-68
2023/07/21 10:48:34;;;;;;;9.07;4.47;;;26.10;1.00;;;;;;4995717;28;20546;-68
2023/07/21 10:51:01;;;;;;;8.20;4.67;;;26.60;1.00;;;;;;4995768;28;20817;-68
2023/07/21 10:53:27;;;;;;;7.07;4.50;;;26.50;1.00;;;;;;4995807;28;20457;-68
2023/07/21 10:55:54;;;;;;;6.77;3.77;;;26.90;1.00;;;;;;4995863;28;20461;-68
2023/07/21 10:58:21;;;;;;;7.10;3.83;;;26.50;1.00;;;;;;4995551;28;20454;-68
2023/07/21 11:00:50;;;;;;;8.50;3.67;;;27.10;1.00;;;;;;4995659;28;20461;-68
2023/07/21 11:03:17;;;;;;;6.90;3.63;;;27.10;1.00;;;;;;4995391;28;21006;-68
2023/07/21 11:05:46;;;;;;;8.50;3.60;;;27.70;1.00;;;;;;4995596;28;20546;-68
2023/07/21 11:08:13;;;;;;;7.80;3.70;;;27.60;1.00;;;;;;4995447;28;20462;-68
2023/07/21 11:10:40;;;;;;;6.67;3.40;;;27.90;1.00;;;;;;4995359;28;20458;-68
2023/07/21 11:13:07;;;;;;;6.00;3.37;;;27.70;1.00;;;;;;4995578;28;20458;-68
2023/07/21 11:15:36;;;;;;;5.73;2.83;;;27.50;1.00;;;;;;4995376;28;20466;-68
2023/07/21 11:18:03;;;;;;;7.40;3.30;;;26.50;1.00;;;;;;4995257;28;20519;-68
2023/07/21 11:20:30;;;;;;;13.50;3.53;;;26.70;1.00;;;;;;4994965;28;20460;-68
2023/07/21 11:22:59;;;;;;;6.00;2.60;;;26.40;1.00;;;;;;4994991;28;20489;-68
2023/07/21 11:25:26;;;;;;;6.80;3.60;;;25.90;1.00;;;;;;4995357;28;20458;-68
2023/07/21 11:27:53;;;;;;;6.30;2.93;;;26.00;1.00;;;;;;4995002;28;20463;-68
2023/07/21 11:30:20;;;;;;;5.43;2.73;;;26.70;1.00;;;;;;4994765;28;20458;-68
2023/07/21 11:32:47;;;;;;;7.10;3.20;;;28.20;1.00;;;;;;4994930;28;20589;-68
2023/07/21 11:35:14;;;;;;;8.80;3.57;;;28.90;1.00;;;;;;4995126;28;20437;-68
2023/07/21 11:37:42;;;;;;;8.30;3.50;;;28.50;1.00;;;;;;4994803;28;20472;-68
2023/07/21 11:40:14;;;;;;;7.23;3.80;;;28.60;1.00;;;;;;4994436;28;20460;-68
2023/07/21 11:42:46;;;;;;;6.53;3.37;;;28.40;1.00;;;;;;4994905;28;20484;-69
2023/07/21 11:45:35;;;;;;;9.27;2.90;;;28.70;1.00;;;;;;4994920;28;21030;-68
2023/07/21 11:48:10;;;;;;;5.63;2.10;;;29.60;1.00;;;;;;4994935;28;20465;-68
2023/07/21 11:50:37;;;;;;;6.30;2.90;;;30.40;1.00;;;;;;4994846;28;20516;-68
2023/07/21 11:53:07;;;;;;;6.10;3.10;;;29.30;1.00;;;;;;4994714;28;20454;-68
2023/07/21 11:55:38;;;;;;;7.60;3.30;;;29.20;1.00;;;;;;4994566;28;20872;-68
2023/07/21 11:58:04;;;;;;;6.30;2.70;;;28.40;1.00;;;;;;4994403;28;20425;-68
2023/07/21 12:00:33;;;;;;;8.73;3.47;;;27.80;1.00;;;;;;4994409;28;20461;-68
2023/07/21 12:03:00;;;;;;;11.13;2.73;;;27.70;1.00;;;;;;4994481;28;20482;-68
2023/07/21 12:05:27;;;;;;;5.93;2.20;;;28.90;1.00;;;;;;4994483;28;20454;-68
2023/07/21 12:07:54;;;;;;;6.20;2.07;;;29.40;1.00;;;;;;4994269;28;20954;-68
2023/07/21 12:10:22;;;;;;;6.37;2.20;;;30.20;1.00;;;;;;4994018;28;20561;-68
2023/07/21 12:12:52;;;;;;;7.37;2.60;;;30.00;1.00;;;;;;4994404;28;20939;-68
2023/07/21 12:15:19;;;;;;;7.82;2.92;;;29.20;1.00;;;;;;4993578;28;21048;-69
2023/07/21 12:17:46;;;;;;;11.60;2.83;;;28.50;1.00;;;;;;4994788;28;20203;-71
2023/07/21 12:20:13;;;;;;;9.87;2.60;;;28.20;1.00;;;;;;4994319;28;20450;-72
2023/07/21 12:22:43;;;;;;;7.07;3.40;;;29.50;1.00;;;;;;4996636;28;20559;-71
2023/07/21 12:25:11;;;;;;;5.90;3.00;;;28.40;1.00;;;;;;5013569;28;20473;-72
2023/07/21 12:27:38;;;;;;;6.30;2.47;;;28.10;1.00;;;;;;5013849;28;20461;-71